sensor_id;sensor_type;location;lat;lon;timestamp;pressure;altitude;pressure_sealevel;temperature
29701;BMP280;57917;51.380;-0.176;2023-09-12T00:03:24;101023.75;;;21.24
29701;BMP280;57917;51.380;-0.176;2023-09-12T00:09:12;101020.94;;;21.21
29701;BMP280;57917;51.380;-0.176;2023-09-12T00:14:59;101022.50;;;20.94
29701;BMP280;57917;51.380;-0.176;2023-09-12T00:20:46;101031.06;;;20.84
29701;BMP280;57917;51.380;-0.176;2023-09-12T00:26:33;101026.16;;;21.02
29701;BMP280;57917;51.380;-0.176;2023-09-12T00:32:20;101030.09;;;21.04
29701;BMP280;57917;51.380;-0.176;2023-09-12T00:38:08;101031.06;;;20.84
29701;BMP280;57917;51.380;-0.176;2023-09-12T00:43:58;101029.84;;;20.97
29701;BMP280;57917;51.380;-0.176;2023-09-12T00:49:47;101025.50;;;20.81
29701;BMP280;57917;51.380;-0.176;2023-09-12T00:55:45;101014.53;;;20.86
29701;BMP280;57917;51.380;-0.176;2023-09-12T01:01:33;101007.56;;;20.97
29701;BMP280;57917;51.380;-0.176;2023-09-12T01:07:22;101006.56;;;20.89
29701;BMP280;57917;51.380;-0.176;2023-09-12T01:13:09;100998.59;;;20.93
29701;BMP280;57917;51.380;-0.176;2023-09-12T01:18:56;101003.47;;;20.75
29701;BMP280;57917;51.380;-0.176;2023-09-12T01:31:05;100998.31;;;20.70
29701;BMP280;57917;51.380;-0.176;2023-09-12T01:36:55;100991.56;;;20.76
29701;BMP280;57917;51.380;-0.176;2023-09-12T01:42:46;100996.94;;;20.76
29701;BMP280;57917;51.380;-0.176;2023-09-12T01:48:36;100993.50;;;20.76
29701;BMP280;57917;51.380;-0.176;2023-09-12T01:54:26;100993.59;;;20.79
29701;BMP280;57917;51.380;-0.176;2023-09-12T02:00:14;101006.50;;;20.74
29701;BMP280;57917;51.380;-0.176;2023-09-12T02:06:04;101001.25;;;20.53
29701;BMP280;57917;51.380;-0.176;2023-09-12T02:11:51;101009.97;;;20.50
29701;BMP280;57917;51.380;-0.176;2023-09-12T02:17:40;101017.59;;;20.48
29701;BMP280;57917;51.380;-0.176;2023-09-12T02:23:27;101012.69;;;20.50
29701;BMP280;57917;51.380;-0.176;2023-09-12T02:29:14;101013.34;;;20.35
29701;BMP280;57917;51.380;-0.176;2023-09-12T02:35:01;101014.91;;;20.36
29701;BMP280;57917;51.380;-0.176;2023-09-12T02:40:48;101016.47;;;20.13
29701;BMP280;57917;51.380;-0.176;2023-09-12T02:46:37;101017.09;;;20.10
29701;BMP280;57917;51.380;-0.176;2023-09-12T02:52:24;101010.88;;;20.18
29701;BMP280;57917;51.380;-0.176;2023-09-12T02:58:11;101019.84;;;20.22
29701;BMP280;57917;51.380;-0.176;2023-09-12T03:03:57;101005.63;;;20.34
29701;BMP280;57917;51.380;-0.176;2023-09-12T03:09:48;101005.16;;;20.32
29701;BMP280;57917;51.380;-0.176;2023-09-12T03:15:36;101010.88;;;20.42
29701;BMP280;57917;51.380;-0.176;2023-09-12T03:21:24;101010.69;;;20.47
29701;BMP280;57917;51.380;-0.176;2023-09-12T03:27:11;101012.88;;;20.21
29701;BMP280;57917;51.380;-0.176;2023-09-12T03:32:58;101007.69;;;20.04
29701;BMP280;57917;51.380;-0.176;2023-09-12T03:38:46;101014.56;;;20.14
29701;BMP280;57917;51.380;-0.176;2023-09-12T03:44:33;101014.31;;;20.07
29701;BMP280;57917;51.380;-0.176;2023-09-12T03:50:20;101004.06;;;19.76
29701;BMP280;57917;51.380;-0.176;2023-09-12T03:56:08;101003.09;;;19.93
29701;BMP280;57917;51.380;-0.176;2023-09-12T04:02:01;101002.84;;;19.98
29701;BMP280;57917;51.380;-0.176;2023-09-12T04:07:48;100992.44;;;19.84
29701;BMP280;57917;51.380;-0.176;2023-09-12T04:13:35;100991.81;;;19.99
29701;BMP280;57917;51.380;-0.176;2023-09-12T04:19:25;100990.47;;;19.93
29701;BMP280;57917;51.380;-0.176;2023-09-12T04:25:12;100984.38;;;19.72
29701;BMP280;57917;51.380;-0.176;2023-09-12T04:31:05;100983.19;;;19.61
29701;BMP280;57917;51.380;-0.176;2023-09-12T04:36:53;100977.22;;;19.23
29701;BMP280;57917;51.380;-0.176;2023-09-12T04:42:54;100975.53;;;19.51
29701;BMP280;57917;51.380;-0.176;2023-09-12T04:48:49;100979.94;;;19.56
29701;BMP280;57917;51.380;-0.176;2023-09-12T04:54:36;100973.50;;;19.48
29701;BMP280;57917;51.380;-0.176;2023-09-12T05:00:23;100984.97;;;19.57
29701;BMP280;57917;51.380;-0.176;2023-09-12T05:06:11;100976.91;;;19.57
29701;BMP280;57917;51.380;-0.176;2023-09-12T05:11:59;100971.94;;;19.47
29701;BMP280;57917;51.380;-0.176;2023-09-12T05:17:46;100986.09;;;19.36
29701;BMP280;57917;51.380;-0.176;2023-09-12T05:23:33;100982.94;;;19.54
29701;BMP280;57917;51.380;-0.176;2023-09-12T05:29:20;100981.75;;;19.64
29701;BMP280;57917;51.380;-0.176;2023-09-12T05:35:07;100985.72;;;19.78
29701;BMP280;57917;51.380;-0.176;2023-09-12T05:41:07;100980.63;;;19.65
29701;BMP280;57917;51.380;-0.176;2023-09-12T05:46:55;100990.38;;;19.69
29701;BMP280;57917;51.380;-0.176;2023-09-12T05:52:44;100993.06;;;19.81
29701;BMP280;57917;51.380;-0.176;2023-09-12T05:58:34;100996.66;;;19.73
29701;BMP280;57917;51.380;-0.176;2023-09-12T06:04:23;101002.72;;;19.70
29701;BMP280;57917;51.380;-0.176;2023-09-12T06:10:10;101005.00;;;19.60
29701;BMP280;57917;51.380;-0.176;2023-09-12T06:16:00;101026.63;;;19.63
29701;BMP280;57917;51.380;-0.176;2023-09-12T06:21:50;101028.31;;;20.00
29701;BMP280;57917;51.380;-0.176;2023-09-12T06:27:39;101044.06;;;20.22
29701;BMP280;57917;51.380;-0.176;2023-09-12T06:33:26;101040.66;;;20.37
29701;BMP280;57917;51.380;-0.176;2023-09-12T06:39:17;101031.38;;;20.59
29701;BMP280;57917;51.380;-0.176;2023-09-12T06:45:28;101035.09;;;20.54
29701;BMP280;57917;51.380;-0.176;2023-09-12T06:51:28;101047.84;;;20.69
29701;BMP280;57917;51.380;-0.176;2023-09-12T06:57:23;101049.66;;;20.53
29701;BMP280;57917;51.380;-0.176;2023-09-12T07:03:11;101055.69;;;20.62
29701;BMP280;57917;51.380;-0.176;2023-09-12T07:09:03;101068.72;;;20.72
29701;BMP280;57917;51.380;-0.176;2023-09-12T07:14:55;101068.28;;;20.70
29701;BMP280;57917;51.380;-0.176;2023-09-12T07:20:42;101068.72;;;20.72
29701;BMP280;57917;51.380;-0.176;2023-09-12T07:26:29;101072.06;;;20.81
29701;BMP280;57917;51.380;-0.176;2023-09-12T07:32:22;101078.44;;;20.77
29701;BMP280;57917;51.380;-0.176;2023-09-12T07:38:10;101075.63;;;20.85
29701;BMP280;57917;51.380;-0.176;2023-09-12T07:44:00;101083.19;;;20.80
29701;BMP280;57917;51.380;-0.176;2023-09-12T07:49:55;101080.69;;;20.99
29701;BMP280;57917;51.380;-0.176;2023-09-12T07:55:41;101082.59;;;20.98
29701;BMP280;57917;51.380;-0.176;2023-09-12T08:01:35;101085.94;;;21.19
29701;BMP280;57917;51.380;-0.176;2023-09-12T08:07:25;101086.41;;;21.37
29701;BMP280;57917;51.380;-0.176;2023-09-12T08:13:12;101087.63;;;21.51
29701;BMP280;57917;51.380;-0.176;2023-09-12T08:19:02;101094.19;;;21.66
29701;BMP280;57917;51.380;-0.176;2023-09-12T08:24:49;101091.25;;;21.71
29701;BMP280;57917;51.380;-0.176;2023-09-12T08:30:38;101085.69;;;21.79
29701;BMP280;57917;51.380;-0.176;2023-09-12T08:36:29;101085.56;;;21.60
29701;BMP280;57917;51.380;-0.176;2023-09-12T08:42:17;101094.13;;;21.50
29701;BMP280;57917;51.380;-0.176;2023-09-12T08:48:06;101101.97;;;21.67
29701;BMP280;57917;51.380;-0.176;2023-09-12T08:53:57;101090.84;;;21.84
29701;BMP280;57917;51.380;-0.176;2023-09-12T08:59:47;101096.31;;;22.16
29701;BMP280;57917;51.380;-0.176;2023-09-12T09:05:43;101078.19;;;22.63
29701;BMP280;57917;51.380;-0.176;2023-09-12T09:11:31;101069.59;;;23.30
29701;BMP280;57917;51.380;-0.176;2023-09-12T09:17:19;101058.41;;;24.18
29701;BMP280;57917;51.380;-0.176;2023-09-12T09:23:21;101048.13;;;24.79
29701;BMP280;57917;51.380;-0.176;2023-09-12T09:29:20;101059.53;;;24.95
29701;BMP280;57917;51.380;-0.176;2023-09-12T09:35:42;101052.31;;;24.73
29701;BMP280;57917;51.380;-0.176;2023-09-12T09:41:35;101053.03;;;24.73
29701;BMP280;57917;51.380;-0.176;2023-09-12T09:47:31;101042.22;;;25.03
29701;BMP280;57917;51.380;-0.176;2023-09-12T09:53:28;101044.22;;;25.09
29701;BMP280;57917;51.380;-0.176;2023-09-12T09:59:17;101046.13;;;25.05
29701;BMP280;57917;51.380;-0.176;2023-09-12T10:05:21;101047.84;;;25.20
29701;BMP280;57917;51.380;-0.176;2023-09-12T10:11:20;101045.94;;;25.64
29701;BMP280;57917;51.380;-0.176;2023-09-12T10:17:17;101035.34;;;25.45
29701;BMP280;57917;51.380;-0.176;2023-09-12T10:23:16;101038.53;;;25.58
29701;BMP280;57917;51.380;-0.176;2023-09-12T10:29:16;101036.66;;;25.62
29701;BMP280;57917;51.380;-0.176;2023-09-12T10:35:06;101036.09;;;25.46
29701;BMP280;57917;51.380;-0.176;2023-09-12T10:40:55;101035.44;;;25.56
29701;BMP280;57917;51.380;-0.176;2023-09-12T10:46:45;101033.50;;;25.60
29701;BMP280;57917;51.380;-0.176;2023-09-12T10:52:33;101034.06;;;25.76
29701;BMP280;57917;51.380;-0.176;2023-09-12T10:58:26;101036.19;;;25.53
29701;BMP280;57917;51.380;-0.176;2023-09-12T11:10:18;101036.22;;;25.60
29701;BMP280;57917;51.380;-0.176;2023-09-12T11:16:16;101030.50;;;25.68
29701;BMP280;57917;51.380;-0.176;2023-09-12T11:22:30;101023.31;;;25.46
29701;BMP280;57917;51.380;-0.176;2023-09-12T11:28:21;101035.00;;;25.54
29701;BMP280;57917;51.380;-0.176;2023-09-12T11:34:21;101030.25;;;25.87
29701;BMP280;57917;51.380;-0.176;2023-09-12T11:45:59;101022.91;;;25.88
29701;BMP280;57917;51.380;-0.176;2023-09-12T11:51:58;101018.41;;;25.59
29701;BMP280;57917;51.380;-0.176;2023-09-12T11:57:45;101024.50;;;25.45
29701;BMP280;57917;51.380;-0.176;2023-09-12T12:03:34;101018.69;;;25.50
29701;BMP280;57917;51.380;-0.176;2023-09-12T12:09:21;101014.78;;;25.48
29701;BMP280;57917;51.380;-0.176;2023-09-12T12:15:11;101015.47;;;25.34
29701;BMP280;57917;51.380;-0.176;2023-09-12T12:20:58;101023.69;;;25.08
29701;BMP280;57917;51.380;-0.176;2023-09-12T12:26:46;101020.22;;;25.48
29701;BMP280;57917;51.380;-0.176;2023-09-12T12:32:47;101011.28;;;25.44
29701;BMP280;57917;51.380;-0.176;2023-09-12T12:39:16;101015.34;;;25.24
29701;BMP280;57917;51.380;-0.176;2023-09-12T12:45:15;101016.69;;;25.04
29701;BMP280;57917;51.380;-0.176;2023-09-12T12:51:22;101016.69;;;25.04
29701;BMP280;57917;51.380;-0.176;2023-09-12T12:57:10;101009.94;;;24.91
29701;BMP280;57917;51.380;-0.176;2023-09-12T13:03:02;101010.69;;;24.88
29701;BMP280;57917;51.380;-0.176;2023-09-12T13:08:58;101009.03;;;25.13
29701;BMP280;57917;51.380;-0.176;2023-09-12T13:15:02;101015.25;;;25.13
29701;BMP280;57917;51.380;-0.176;2023-09-12T13:20:49;101014.22;;;24.92
29701;BMP280;57917;51.380;-0.176;2023-09-12T13:26:35;101002.81;;;24.76
29701;BMP280;57917;51.380;-0.176;2023-09-12T13:32:23;100996.41;;;24.91
29701;BMP280;57917;51.380;-0.176;2023-09-12T13:38:18;100988.59;;;24.86
29701;BMP280;57917;51.380;-0.176;2023-09-12T13:44:16;100989.41;;;24.90
29701;BMP280;57917;51.380;-0.176;2023-09-12T13:50:07;100994.00;;;25.19
29701;BMP280;57917;51.380;-0.176;2023-09-12T13:55:54;100988.84;;;25.43
29701;BMP280;57917;51.380;-0.176;2023-09-12T14:01:44;100988.47;;;25.48
29701;BMP280;57917;51.380;-0.176;2023-09-12T14:07:34;100983.63;;;25.28
29701;BMP280;57917;51.380;-0.176;2023-09-12T14:13:22;100989.41;;;25.23
29701;BMP280;57917;51.380;-0.176;2023-09-12T14:19:10;100993.47;;;25.03
29701;BMP280;57917;51.380;-0.176;2023-09-12T14:25:04;100986.50;;;25.02
29701;BMP280;57917;51.380;-0.176;2023-09-12T14:30:52;100982.31;;;24.75
29701;BMP280;57917;51.380;-0.176;2023-09-12T14:36:39;100990.06;;;24.80
29701;BMP280;57917;51.380;-0.176;2023-09-12T14:42:26;100982.50;;;24.63
29701;BMP280;57917;51.380;-0.176;2023-09-12T14:48:24;100982.41;;;24.26
29701;BMP280;57917;51.380;-0.176;2023-09-12T14:54:25;100982.28;;;24.42
29701;BMP280;57917;51.380;-0.176;2023-09-12T15:00:16;100986.41;;;24.36
29701;BMP280;57917;51.380;-0.176;2023-09-12T15:06:08;100982.38;;;24.23
29701;BMP280;57917;51.380;-0.176;2023-09-12T15:12:26;100976.06;;;24.15
29701;BMP280;57917;51.380;-0.176;2023-09-12T15:18:14;100978.72;;;24.12
29701;BMP280;57917;51.380;-0.176;2023-09-12T15:24:21;100974.13;;;23.90
29701;BMP280;57917;51.380;-0.176;2023-09-12T15:30:38;100979.03;;;24.07
29701;BMP280;57917;51.380;-0.176;2023-09-12T15:36:26;100981.31;;;24.05
29701;BMP280;57917;51.380;-0.176;2023-09-12T15:42:32;100982.38;;;24.23
29701;BMP280;57917;51.380;-0.176;2023-09-12T15:48:26;100979.28;;;24.21
29701;BMP280;57917;51.380;-0.176;2023-09-12T15:54:14;100976.97;;;24.23
29701;BMP280;57917;51.380;-0.176;2023-09-12T16:00:08;100969.88;;;24.15
29701;BMP280;57917;51.380;-0.176;2023-09-12T16:05:59;100974.78;;;24.06
29701;BMP280;57917;51.380;-0.176;2023-09-12T16:11:49;100964.78;;;23.84
29701;BMP280;57917;51.380;-0.176;2023-09-12T16:17:45;100984.25;;;23.93
29701;BMP280;57917;51.380;-0.176;2023-09-12T16:23:32;100980.53;;;23.56
29701;BMP280;57917;51.380;-0.176;2023-09-12T16:29:20;100984.94;;;23.03
29701;BMP280;57917;51.380;-0.176;2023-09-12T16:35:08;100986.56;;;22.89
29701;BMP280;57917;51.380;-0.176;2023-09-12T16:41:07;100992.19;;;22.80
29701;BMP280;57917;51.380;-0.176;2023-09-12T16:46:54;101001.19;;;22.69
29701;BMP280;57917;51.380;-0.176;2023-09-12T16:53:10;100999.88;;;22.44
29701;BMP280;57917;51.380;-0.176;2023-09-12T16:59:45;101015.25;;;22.43
29701;BMP280;57917;51.380;-0.176;2023-09-12T17:05:31;101020.31;;;22.45
29701;BMP280;57917;51.380;-0.176;2023-09-12T17:11:20;101013.72;;;22.42
29701;BMP280;57917;51.380;-0.176;2023-09-12T17:17:09;101013.72;;;22.42
29701;BMP280;57917;51.380;-0.176;2023-09-12T17:22:56;101026.00;;;22.40
29701;BMP280;57917;51.380;-0.176;2023-09-12T17:28:43;101019.41;;;22.56
29701;BMP280;57917;51.380;-0.176;2023-09-12T17:34:40;101026.13;;;22.62
29701;BMP280;57917;51.380;-0.176;2023-09-12T17:40:27;101031.72;;;22.23
29701;BMP280;57917;51.380;-0.176;2023-09-12T17:46:14;101026.28;;;21.33
29701;BMP280;57917;51.380;-0.176;2023-09-12T17:52:04;101033.16;;;21.58
29701;BMP280;57917;51.380;-0.176;2023-09-12T17:58:02;101033.25;;;21.61
29701;BMP280;57917;51.380;-0.176;2023-09-12T18:04:08;101046.00;;;21.64
29701;BMP280;57917;51.380;-0.176;2023-09-12T18:10:02;101051.03;;;21.50
29701;BMP280;57917;51.380;-0.176;2023-09-12T18:16:02;101060.72;;;21.39
29701;BMP280;57917;51.380;-0.176;2023-09-12T18:22:04;101058.97;;;21.31
29701;BMP280;57917;51.380;-0.176;2023-09-12T18:27:51;101061.91;;;21.14
29701;BMP280;57917;51.380;-0.176;2023-09-12T18:33:38;101080.88;;;21.06
29701;BMP280;57917;51.380;-0.176;2023-09-12T18:39:26;101089.56;;;20.87
29701;BMP280;57917;51.380;-0.176;2023-09-12T18:45:17;101097.28;;;20.89
29701;BMP280;57917;51.380;-0.176;2023-09-12T18:51:04;101103.03;;;20.99
29701;BMP280;57917;51.380;-0.176;2023-09-12T18:57:08;101113.00;;;20.87
29701;BMP280;57917;51.380;-0.176;2023-09-12T19:03:08;101132.06;;;20.70
29701;BMP280;57917;51.380;-0.176;2023-09-12T19:09:27;101134.50;;;20.75
29701;BMP280;57917;51.380;-0.176;2023-09-12T19:16:14;101137.00;;;20.68
29701;BMP280;57917;51.380;-0.176;2023-09-12T19:22:35;101153.47;;;20.90
29701;BMP280;57917;51.380;-0.176;2023-09-12T19:29:18;101177.81;;;20.05
29701;BMP280;57917;51.380;-0.176;2023-09-12T19:35:11;101201.88;;;19.60
29701;BMP280;57917;51.380;-0.176;2023-09-12T19:41:03;101196.63;;;19.35
29701;BMP280;57917;51.380;-0.176;2023-09-12T19:46:50;101219.94;;;19.14
29701;BMP280;57917;51.380;-0.176;2023-09-12T19:52:37;101208.38;;;18.84
29701;BMP280;57917;51.380;-0.176;2023-09-12T19:58:30;101214.19;;;18.86
29701;BMP280;57917;51.380;-0.176;2023-09-12T20:04:53;101214.88;;;18.49
29701;BMP280;57917;51.380;-0.176;2023-09-12T20:10:57;101219.31;;;18.53
29701;BMP280;57917;51.380;-0.176;2023-09-12T20:17:03;101219.25;;;18.88
29701;BMP280;57917;51.380;-0.176;2023-09-12T20:22:54;101226.59;;;19.08
29701;BMP280;57917;51.380;-0.176;2023-09-12T20:28:53;101244.84;;;18.59
29701;BMP280;57917;51.380;-0.176;2023-09-12T20:34:44;101242.03;;;18.22
29701;BMP280;57917;51.380;-0.176;2023-09-12T20:48:15;101275.69;;;17.89
29701;BMP280;57917;51.380;-0.176;2023-09-12T20:54:06;101272.75;;;17.60
29701;BMP280;57917;51.380;-0.176;2023-09-12T20:59:56;101268.38;;;17.64
29701;BMP280;57917;51.380;-0.176;2023-09-12T21:05:49;101279.13;;;17.72
29701;BMP280;57917;51.380;-0.176;2023-09-12T21:11:37;101294.38;;;17.63
29701;BMP280;57917;51.380;-0.176;2023-09-12T21:23:37;101304.59;;;17.31
29701;BMP280;57917;51.380;-0.176;2023-09-12T21:29:24;101295.59;;;17.27
29701;BMP280;57917;51.380;-0.176;2023-09-12T21:35:17;101305.41;;;17.09
29701;BMP280;57917;51.380;-0.176;2023-09-12T21:41:07;101319.03;;;17.21
29701;BMP280;57917;51.380;-0.176;2023-09-12T21:46:57;101319.59;;;17.10
29701;BMP280;57917;51.380;-0.176;2023-09-12T21:52:44;101322.19;;;17.23
29701;BMP280;57917;51.380;-0.176;2023-09-12T21:58:34;101315.03;;;17.10
29701;BMP280;57917;51.380;-0.176;2023-09-12T22:04:21;101331.69;;;16.85
29701;BMP280;57917;51.380;-0.176;2023-09-12T22:10:08;101332.34;;;17.13
29701;BMP280;57917;51.380;-0.176;2023-09-12T22:15:57;101331.47;;;16.82
29701;BMP280;57917;51.380;-0.176;2023-09-12T22:29:48;101346.91;;;16.85
29701;BMP280;57917;51.380;-0.176;2023-09-12T22:35:35;101351.06;;;16.91
29701;BMP280;57917;51.380;-0.176;2023-09-12T22:41:24;101358.44;;;16.72
29701;BMP280;57917;51.380;-0.176;2023-09-12T22:47:30;101374.06;;;16.78
29701;BMP280;57917;51.380;-0.176;2023-09-12T22:53:27;101383.44;;;16.13
29701;BMP280;57917;51.380;-0.176;2023-09-12T22:59:15;101401.41;;;15.94
29701;BMP280;57917;51.380;-0.176;2023-09-12T23:05:03;101402.38;;;15.84
29701;BMP280;57917;51.380;-0.176;2023-09-12T23:10:51;101406.72;;;15.80
29701;BMP280;57917;51.380;-0.176;2023-09-12T23:16:38;101417.63;;;15.84
29701;BMP280;57917;51.380;-0.176;2023-09-12T23:22:26;101408.97;;;15.73
29701;BMP280;57917;51.380;-0.176;2023-09-12T23:28:12;101425.13;;;15.50
29701;BMP280;57917;51.380;-0.176;2023-09-12T23:34:00;101429.41;;;15.64
29701;BMP280;57917;51.380;-0.176;2023-09-12T23:39:47;101414.03;;;15.75
29701;BMP280;57917;51.380;-0.176;2023-09-12T23:45:34;101413.66;;;15.81
29701;BMP280;57917;51.380;-0.176;2023-09-12T23:51:21;101414.03;;;15.75
29701;BMP280;57917;51.380;-0.176;2023-09-12T23:57:09;101428.19;;;15.75
